createdAt,value
2017-04-04T00:00:54.174Z,0
2017-04-04T00:02:04.101Z,0
2017-04-04T00:03:13.714Z,0
2017-04-04T00:04:24.095Z,0
2017-04-04T00:05:33.700Z,0
2017-04-04T00:06:43.637Z,0
2017-04-04T00:07:53.883Z,0
2017-04-04T00:09:04.129Z,0
2017-04-04T00:10:14.218Z,0
2017-04-04T00:11:23.561Z,0
2017-04-04T00:12:33.171Z,0
2017-04-04T00:13:43.096Z,0
2017-04-04T00:14:52.704Z,0
2017-04-04T00:16:03.339Z,0
2017-04-04T00:17:13.271Z,0
2017-04-04T00:18:22.891Z,0
2017-04-04T00:19:32.841Z,0
2017-04-04T00:20:43.057Z,0
2017-04-04T00:21:53.159Z,0
2017-04-04T00:23:03.100Z,0
2017-04-04T00:24:13.020Z,0
2017-04-04T00:25:22.978Z,0
2017-04-04T00:26:32.898Z,0
2017-04-04T00:27:42.987Z,0
2017-04-04T00:28:52.898Z,0
2017-04-04T00:30:03.122Z,0
2017-04-04T00:31:13.345Z,0
2017-04-04T00:32:23.596Z,0
2017-04-04T00:33:33.353Z,0
2017-04-04T00:34:42.948Z,0
2017-04-04T00:35:52.889Z,0
2017-04-04T00:37:03.110Z,0
2017-04-04T00:38:13.398Z,0
2017-04-04T00:39:23.651Z,0
2017-04-04T00:40:33.574Z,0
2017-04-04T00:41:43.488Z,0
2017-04-04T00:42:53.402Z,0
2017-04-04T00:44:03.316Z,0
2017-04-04T00:45:13.220Z,0
2017-04-04T00:46:23.451Z,0
2017-04-04T00:47:32.147Z,0
2017-04-04T00:48:42.076Z,0
2017-04-04T00:49:52.009Z,0
2017-04-04T00:51:02.527Z,0
2017-04-04T00:52:12.131Z,0
2017-04-04T00:53:22.383Z,0
2017-04-04T00:54:32.012Z,0
2017-04-04T00:55:41.927Z,0
2017-04-04T00:56:51.692Z,0
2017-04-04T00:58:00.998Z,0
2017-04-04T00:59:10.596Z,0
2017-04-04T01:00:20.802Z,0
2017-04-04T01:01:31.016Z,0
2017-04-04T01:02:41.227Z,0
2017-04-04T01:03:51.151Z,0
2017-04-04T01:05:01.111Z,0
2017-04-04T01:06:10.786Z,0
2017-04-04T01:07:21.015Z,0
2017-04-04T01:08:31.724Z,0
2017-04-04T01:09:41.742Z,0
2017-04-04T01:10:51.690Z,0
2017-04-04T01:12:01.338Z,0
2017-04-04T01:13:11.553Z,0
2017-04-04T01:14:22.324Z,0
2017-04-04T01:15:31.962Z,0
2017-04-04T01:16:42.206Z,0
2017-04-04T01:17:52.117Z,0
2017-04-04T01:19:01.424Z,0
2017-04-04T01:20:12.434Z,0
2017-04-04T01:21:22.056Z,0
2017-04-04T01:22:31.650Z,0
2017-04-04T01:23:41.248Z,0
2017-04-04T01:24:51.163Z,0
2017-04-04T01:26:01.378Z,0
2017-04-04T01:27:11.601Z,0
2017-04-04T01:28:21.512Z,0
2017-04-04T01:29:31.464Z,0
2017-04-04T01:30:41.087Z,0
2017-04-04T01:31:50.993Z,0
2017-04-04T01:33:00.594Z,0
2017-04-04T01:34:10.510Z,0
2017-04-04T01:35:20.730Z,0
2017-04-04T01:36:30.946Z,0
2017-04-04T01:37:40.298Z,0
2017-04-04T01:38:50.511Z,0
2017-04-04T01:40:00.113Z,0
2017-04-04T01:41:10.332Z,0
2017-04-04T01:42:20.249Z,0
2017-04-04T01:43:30.320Z,0
2017-04-04T01:44:40.226Z,0
2017-04-04T01:45:49.828Z,0
2017-04-04T01:46:59.760Z,0
2017-04-04T01:48:09.686Z,0
2017-04-04T01:49:20.041Z,0
2017-04-04T01:50:29.961Z,0
2017-04-04T01:51:39.562Z,0
2017-04-04T01:52:49.778Z,0
2017-04-04T01:53:59.697Z,0
2017-04-04T01:55:10.027Z,0
2017-04-04T01:56:19.951Z,0
2017-04-04T01:57:29.866Z,0
2017-04-04T01:58:40.086Z,0
2017-04-04T01:59:50.310Z,0
2017-04-04T02:01:00.870Z,0
2017-04-04T02:02:10.795Z,0
2017-04-04T02:03:20.401Z,0
2017-04-04T02:04:30.301Z,0
2017-04-04T02:05:40.215Z,0
2017-04-04T02:06:50.124Z,0
2017-04-04T02:07:59.744Z,0
2017-04-04T02:09:09.056Z,0
2017-04-04T02:10:18.969Z,0
2017-04-04T02:11:28.272Z,0
2017-04-04T02:12:38.283Z,0
2017-04-04T02:13:48.196Z,0
2017-04-04T02:14:58.116Z,0
2017-04-04T02:16:07.740Z,0
2017-04-04T02:17:17.647Z,0
2017-04-04T02:18:27.906Z,0
2017-04-04T02:19:38.127Z,0
2017-04-04T02:20:47.426Z,0
2017-04-04T02:21:57.651Z,0
2017-04-04T02:23:07.556Z,0
2017-04-04T02:24:17.205Z,0
2017-04-04T02:25:26.827Z,0
2017-04-04T02:26:37.031Z,0
2017-04-04T02:27:46.637Z,0
2017-04-04T02:28:55.980Z,0
2017-04-04T02:30:06.851Z,0
2017-04-04T02:31:17.068Z,0
2017-04-04T02:32:26.986Z,0
2017-04-04T02:33:37.212Z,0
2017-04-04T02:34:47.120Z,0
2017-04-04T02:35:57.144Z,0
2017-04-04T02:37:07.355Z,0
2017-04-04T02:38:17.295Z,0
2017-04-04T02:39:27.208Z,0
2017-04-04T02:40:36.818Z,0
2017-04-04T02:41:47.154Z,0
2017-04-04T02:42:57.078Z,0
2017-04-04T02:44:06.995Z,0
2017-04-04T02:45:17.219Z,0
2017-04-04T02:46:27.132Z,0
2017-04-04T02:47:37.206Z,0
2017-04-04T02:48:47.111Z,0
2017-04-04T02:49:57.040Z,0
2017-04-04T02:51:06.955Z,0
2017-04-04T02:52:16.870Z,0
2017-04-04T02:53:26.310Z,0
2017-04-04T02:54:36.227Z,0
2017-04-04T02:55:46.139Z,0
2017-04-04T02:56:55.753Z,0
2017-04-04T02:58:06.029Z,0
2017-04-04T02:59:16.094Z,0
2017-04-04T03:00:26.317Z,0
2017-04-04T03:01:36.540Z,0
2017-04-04T03:02:46.767Z,0
2017-04-04T03:03:56.357Z,0
2017-04-04T03:05:06.370Z,0
2017-04-04T03:06:16.279Z,0
2017-04-04T03:07:26.182Z,0
2017-04-04T03:08:36.393Z,0
2017-04-04T03:09:46.600Z,0
2017-04-04T03:10:57.575Z,0
2017-04-04T03:12:07.480Z,0
2017-04-04T03:13:17.399Z,0
2017-04-04T03:14:27.615Z,0
2017-04-04T03:15:37.232Z,0
2017-04-04T03:16:47.511Z,0
2017-04-04T03:17:57.719Z,0
2017-04-04T03:19:07.641Z,0
2017-04-04T03:20:17.254Z,0
2017-04-04T03:21:27.171Z,0
2017-04-04T03:22:37.700Z,0
2017-04-04T03:23:47.608Z,0
2017-04-04T03:24:57.223Z,0
2017-04-04T03:26:07.135Z,0
2017-04-04T03:27:17.046Z,0
2017-04-04T03:28:27.251Z,0
2017-04-04T03:29:36.854Z,0
2017-04-04T03:30:47.071Z,0
2017-04-04T03:31:56.687Z,0
2017-04-04T03:33:06.601Z,0
2017-04-04T03:34:17.926Z,0
2017-04-04T03:35:28.131Z,0
2017-04-04T03:36:38.046Z,0
2017-04-04T03:37:47.967Z,0
2017-04-04T03:38:58.192Z,0
2017-04-04T03:40:08.588Z,0
2017-04-04T03:41:18.199Z,0
2017-04-04T03:42:28.105Z,0
2017-04-04T03:43:37.704Z,0
2017-04-04T03:44:47.315Z,0
2017-04-04T03:45:58.225Z,0
2017-04-04T03:47:07.523Z,0
2017-04-04T03:48:17.147Z,0
2017-04-04T03:49:27.063Z,0
2017-04-04T03:50:36.970Z,0
2017-04-04T03:51:46.889Z,0
2017-04-04T03:52:56.493Z,0
2017-04-04T03:54:06.697Z,0
2017-04-04T03:55:16.918Z,0
2017-04-04T03:56:27.512Z,0
2017-04-04T03:57:37.563Z,0
2017-04-04T03:58:47.779Z,0
2017-04-04T03:59:57.383Z,0
2017-04-04T04:01:06.993Z,0
2017-04-04T04:02:17.204Z,0
2017-04-04T04:03:27.408Z,0
2017-04-04T04:04:37.326Z,0
2017-04-04T04:05:47.258Z,0
2017-04-04T04:06:57.487Z,0
2017-04-04T04:08:06.909Z,0
2017-04-04T04:09:17.132Z,0
2017-04-04T04:10:27.355Z,0
2017-04-04T04:11:37.262Z,0
2017-04-04T04:12:46.590Z,0
2017-04-04T04:13:56.203Z,0
2017-04-04T04:15:06.264Z,0
2017-04-04T04:16:15.870Z,0
2017-04-04T04:17:26.099Z,0
2017-04-04T04:18:36.321Z,0
2017-04-04T04:19:45.617Z,0
2017-04-04T04:20:56.279Z,0
2017-04-04T04:22:06.198Z,0
2017-04-04T04:23:16.106Z,0
2017-04-04T04:24:26.321Z,0
2017-04-04T04:25:36.559Z,0
2017-04-04T04:26:46.932Z,0
2017-04-04T04:27:57.200Z,0
2017-04-04T04:29:07.469Z,0
2017-04-04T04:30:17.375Z,0
2017-04-04T04:31:27.301Z,0
2017-04-04T04:32:37.212Z,0
2017-04-04T04:33:47.141Z,0
2017-04-04T04:34:57.043Z,0
2017-04-04T04:36:06.696Z,0
2017-04-04T04:37:16.919Z,0
2017-04-04T04:38:26.982Z,0
2017-04-04T04:39:37.193Z,0
2017-04-04T04:40:47.473Z,0
2017-04-04T04:41:56.805Z,0
2017-04-04T04:43:06.716Z,0
2017-04-04T04:44:16.418Z,0
2017-04-04T04:45:26.341Z,0
2017-04-04T04:46:35.323Z,0
2017-04-04T04:47:44.955Z,0
2017-04-04T04:48:54.580Z,0
2017-04-04T04:50:04.440Z,0
2017-04-04T04:51:14.713Z,0
2017-04-04T04:52:24.634Z,0
2017-04-04T04:53:34.546Z,0
2017-04-04T04:54:44.457Z,0
2017-04-04T04:55:54.822Z,0
2017-04-04T04:57:04.733Z,0
2017-04-04T04:58:14.417Z,0
2017-04-04T04:59:24.060Z,0
2017-04-04T05:00:33.695Z,0
2017-04-04T05:01:44.010Z,0
2017-04-04T05:02:53.984Z,0
2017-04-04T05:04:03.288Z,0
2017-04-04T05:05:13.535Z,0
2017-04-04T05:06:23.154Z,0
2017-04-04T05:07:32.933Z,0
2017-04-04T05:08:42.872Z,0
2017-04-04T05:09:53.104Z,0
2017-04-04T05:11:02.749Z,5
2017-04-04T05:12:12.055Z,5
2017-04-04T05:13:22.658Z,5
2017-04-04T05:14:32.280Z,5
2017-04-04T05:15:42.226Z,5
2017-04-04T05:16:52.191Z,5
2017-04-04T05:18:02.115Z,5
2017-04-04T05:19:11.906Z,5
2017-04-04T05:20:21.214Z,5
2017-04-04T05:21:31.450Z,10
2017-04-04T05:22:41.725Z,10
2017-04-04T05:23:51.639Z,10
2017-04-04T05:25:01.407Z,10
2017-04-04T05:26:11.339Z,10
2017-04-04T05:27:20.954Z,10
2017-04-04T05:28:30.584Z,15
2017-04-04T05:29:40.500Z,15
2017-04-04T05:30:50.989Z,15
2017-04-04T05:32:00.608Z,15
2017-04-04T05:33:10.851Z,15
2017-04-04T05:34:20.478Z,15
2017-04-04T05:35:30.389Z,20
2017-04-04T05:36:40.296Z,20
2017-04-04T05:37:50.229Z,20
2017-04-04T05:39:00.451Z,20
2017-04-04T05:40:10.357Z,20
2017-04-04T05:41:20.274Z,25
2017-04-04T05:42:30.340Z,25
2017-04-04T05:43:39.993Z,25
2017-04-04T05:44:50.261Z,25
2017-04-04T05:46:00.507Z,25
2017-04-04T05:47:10.446Z,25
2017-04-04T05:48:21.691Z,30
2017-04-04T05:49:31.657Z,30
2017-04-04T05:50:41.906Z,30
2017-04-04T05:51:51.867Z,30
2017-04-04T05:53:01.845Z,30
2017-04-04T05:54:11.719Z,35
2017-04-04T05:55:21.326Z,35
2017-04-04T05:56:31.242Z,35
2017-04-04T05:57:41.453Z,35
2017-04-04T05:58:51.679Z,35
2017-04-04T06:00:02.008Z,40
2017-04-04T06:01:11.984Z,40
2017-04-04T06:02:22.215Z,40
2017-04-04T06:03:32.470Z,40
2017-04-04T06:04:42.123Z,40
2017-04-04T06:05:52.053Z,45
2017-04-04T06:07:02.288Z,45
2017-04-04T06:08:12.236Z,45
2017-04-04T06:09:21.837Z,45
2017-04-04T06:10:32.076Z,45
2017-04-04T06:11:43.047Z,45
2017-04-04T06:12:53.003Z,50
2017-04-04T06:14:02.966Z,50
2017-04-04T06:15:12.304Z,50
2017-04-04T06:16:22.224Z,50
2017-04-04T06:17:32.593Z,50
2017-04-04T06:18:42.502Z,55
2017-04-04T06:19:52.410Z,55
2017-04-04T06:21:02.635Z,55
2017-04-04T06:22:12.545Z,55
2017-04-04T06:23:22.562Z,55
2017-04-04T06:24:32.480Z,55
2017-04-04T06:25:42.110Z,60
2017-04-04T06:26:52.040Z,60
2017-04-04T06:28:01.946Z,60
2017-04-04T06:29:12.010Z,60
2017-04-04T06:30:22.239Z,60
2017-04-04T06:31:32.529Z,65
2017-04-04T06:32:42.433Z,65
2017-04-04T06:33:52.037Z,65
2017-04-04T06:35:02.080Z,65
2017-04-04T06:36:12.021Z,65
2017-04-04T06:37:21.941Z,65
2017-04-04T06:38:31.891Z,65
2017-04-04T06:39:42.120Z,65
2017-04-04T06:40:52.300Z,70
2017-04-04T06:42:01.639Z,70
2017-04-04T06:43:11.859Z,70
2017-04-04T06:44:21.491Z,70
2017-04-04T06:45:31.101Z,70
2017-04-04T06:46:40.888Z,70
2017-04-04T06:47:50.815Z,70
2017-04-04T06:49:00.450Z,70
2017-04-04T06:50:10.409Z,70
2017-04-04T06:51:19.747Z,75
2017-04-04T06:52:29.970Z,75
2017-04-04T06:53:39.881Z,75
2017-04-04T06:54:50.116Z,75
2017-04-04T06:56:00.032Z,75
2017-04-04T06:57:09.658Z,75
2017-04-04T06:58:19.568Z,75
2017-04-04T06:59:29.499Z,75
2017-04-04T07:00:39.118Z,75
2017-04-04T07:01:49.044Z,75
2017-04-04T07:02:58.647Z,75
2017-04-04T07:04:08.970Z,75
2017-04-04T07:05:18.572Z,75
2017-04-04T07:06:28.496Z,75
2017-04-04T07:07:38.404Z,75
2017-04-04T07:08:48.317Z,75
2017-04-04T07:09:58.071Z,75
2017-04-04T07:11:08.011Z,75
2017-04-04T07:12:17.941Z,80
2017-04-04T07:13:27.236Z,80
2017-04-04T07:14:36.540Z,80
2017-04-04T07:15:45.992Z,80
2017-04-04T07:16:56.216Z,80
2017-04-04T07:18:06.445Z,80
2017-04-04T07:19:16.361Z,80
2017-04-04T07:20:26.605Z,75
2017-04-04T07:21:36.407Z,75
2017-04-04T07:22:46.018Z,80
2017-04-04T07:23:55.926Z,80
2017-04-04T07:25:06.149Z,80
2017-04-04T07:26:16.072Z,80
2017-04-04T07:27:25.947Z,80
2017-04-04T07:28:35.650Z,75
2017-04-04T07:29:45.875Z,75
2017-04-04T07:30:55.799Z,75
2017-04-04T07:32:05.715Z,75
2017-04-04T07:33:16.217Z,75
2017-04-04T07:34:25.510Z,75
2017-04-04T07:35:35.119Z,75
2017-04-04T07:36:44.730Z,75
2017-04-04T07:37:54.629Z,75
2017-04-04T07:39:05.010Z,75
2017-04-04T07:40:15.297Z,75
2017-04-04T07:41:25.514Z,75
2017-04-04T07:42:35.439Z,75
2017-04-04T07:43:45.081Z,75
2017-04-04T07:44:55.314Z,75
2017-04-04T07:46:05.224Z,75
2017-04-04T07:47:15.134Z,75
2017-04-04T07:48:25.349Z,75
2017-04-04T07:49:35.249Z,75
2017-04-04T07:50:45.260Z,75
2017-04-04T07:51:54.895Z,75
2017-04-04T07:53:05.121Z,75
2017-04-04T07:54:15.047Z,75
2017-04-04T07:55:24.992Z,75
2017-04-04T07:56:35.234Z,75
2017-04-04T07:57:45.147Z,75
2017-04-04T07:58:55.414Z,75
2017-04-04T08:00:05.018Z,75
2017-04-04T08:01:15.006Z,75
2017-04-04T08:02:25.375Z,75
2017-04-04T08:03:34.992Z,70
2017-04-04T08:04:44.908Z,70
2017-04-04T08:05:54.516Z,70
2017-04-04T08:07:04.125Z,70
2017-04-04T08:08:14.383Z,70
2017-04-04T08:09:23.691Z,70
2017-04-04T08:10:33.618Z,70
2017-04-04T08:11:43.531Z,70
2017-04-04T08:12:53.767Z,70
2017-04-04T08:14:04.148Z,70
2017-04-04T08:15:14.365Z,70
2017-04-04T08:16:23.949Z,70
2017-04-04T08:17:33.555Z,70
2017-04-04T08:18:43.451Z,65
2017-04-04T08:19:53.305Z,65
2017-04-04T08:21:03.517Z,65
2017-04-04T08:22:12.833Z,65
2017-04-04T08:23:23.056Z,65
2017-04-04T08:24:32.974Z,65
2017-04-04T08:25:43.293Z,65
2017-04-04T08:26:52.590Z,65
2017-04-04T08:28:02.807Z,65
2017-04-04T08:29:12.408Z,65
2017-04-04T08:30:22.323Z,60
2017-04-04T08:31:32.626Z,60
2017-04-04T08:32:42.559Z,60
2017-04-04T08:33:52.167Z,60
2017-04-04T08:35:02.384Z,60
2017-04-04T08:36:12.309Z,60
2017-04-04T08:37:22.179Z,60
2017-04-04T08:38:32.104Z,60
2017-04-04T08:39:41.424Z,60
2017-04-04T08:40:51.360Z,60
2017-04-04T08:42:01.578Z,60
2017-04-04T08:43:11.178Z,60
2017-04-04T08:44:20.471Z,60
2017-04-04T08:45:30.701Z,60
2017-04-04T08:46:40.643Z,60
2017-04-04T08:47:50.887Z,55
2017-04-04T08:49:02.074Z,55
2017-04-04T08:50:12.007Z,55
2017-04-04T08:51:21.625Z,55
2017-04-04T08:52:31.853Z,55
2017-04-04T08:53:41.782Z,55
2017-04-04T08:54:51.946Z,55
2017-04-04T08:56:01.874Z,55
2017-04-04T08:57:11.795Z,55
2017-04-04T08:58:21.694Z,55
2017-04-04T08:59:31.631Z,55
2017-04-04T09:00:41.704Z,50
2017-04-04T09:01:51.322Z,50
2017-04-04T09:03:01.849Z,50
2017-04-04T09:04:11.604Z,50
2017-04-04T09:05:21.854Z,50
2017-04-04T09:06:32.050Z,50
2017-04-04T09:07:42.292Z,50
2017-04-04T09:08:52.555Z,50
2017-04-04T09:10:02.276Z,50
2017-04-04T09:11:12.220Z,50
2017-04-04T09:12:22.660Z,50
2017-04-04T09:13:32.280Z,50
2017-04-04T09:14:42.568Z,50
2017-04-04T09:15:52.799Z,50
2017-04-04T09:17:03.098Z,50
2017-04-04T09:18:13.033Z,50
2017-04-04T09:19:22.972Z,50
2017-04-04T09:20:32.905Z,50
2017-04-04T09:21:42.824Z,50
2017-04-04T09:22:51.847Z,50
2017-04-04T09:24:02.246Z,45
2017-04-04T09:25:12.188Z,45
2017-04-04T09:26:22.446Z,45
2017-04-04T09:27:32.067Z,45
2017-04-04T09:28:41.984Z,45
2017-04-04T09:29:51.950Z,45
2017-04-04T09:31:01.867Z,45
2017-04-04T09:32:11.478Z,45
2017-04-04T09:33:21.388Z,45
2017-04-04T09:34:30.990Z,45
2017-04-04T09:35:41.553Z,45
2017-04-04T09:36:51.150Z,45
2017-04-04T09:38:01.053Z,45
2017-04-04T09:39:10.970Z,45
2017-04-04T09:40:20.575Z,40
2017-04-04T09:41:30.504Z,40
2017-04-04T09:42:40.185Z,40
2017-04-04T09:43:49.531Z,40
2017-04-04T09:44:59.442Z,40
2017-04-04T09:46:09.364Z,40
2017-04-04T09:47:19.596Z,40
2017-04-04T09:48:29.607Z,40
2017-04-04T09:49:39.211Z,40
2017-04-04T09:50:49.131Z,40
2017-04-04T09:51:59.354Z,40
2017-04-04T09:53:09.564Z,40
2017-04-04T09:54:19.304Z,40
2017-04-04T09:55:29.276Z,40
2017-04-04T09:56:38.883Z,40
2017-04-04T09:57:48.533Z,40
2017-04-04T09:58:58.285Z,40
2017-04-04T10:00:08.592Z,40
2017-04-04T10:01:18.528Z,40
2017-04-04T10:02:28.182Z,40
2017-04-04T10:03:38.401Z,40
2017-04-04T10:04:48.456Z,40
2017-04-04T10:05:58.067Z,40
2017-04-04T10:07:08.292Z,40
2017-04-04T10:08:17.897Z,40
2017-04-04T10:09:27.209Z,40
2017-04-04T10:10:37.722Z,40
2017-04-04T10:11:47.334Z,40
2017-04-04T10:12:57.562Z,40
2017-04-04T10:14:07.514Z,40
2017-04-04T10:15:17.115Z,40
2017-04-04T10:16:27.022Z,40
2017-04-04T10:17:36.960Z,40
2017-04-04T10:18:46.868Z,40
2017-04-04T10:19:57.090Z,35
2017-04-04T10:21:07.012Z,35
2017-04-04T10:22:17.088Z,35
2017-04-04T10:23:26.993Z,35
2017-04-04T10:24:36.965Z,35
2017-04-04T10:25:46.642Z,35
2017-04-04T10:26:57.183Z,35
2017-04-04T10:28:07.051Z,35
2017-04-04T10:29:16.662Z,35
2017-04-04T10:30:26.586Z,35
2017-04-04T10:31:36.230Z,35
2017-04-04T10:32:46.832Z,35
2017-04-04T10:33:55.677Z,35
2017-04-04T10:35:05.592Z,35
2017-04-04T10:36:15.498Z,40
2017-04-04T10:37:25.112Z,40
2017-04-04T10:38:35.022Z,40
2017-04-04T10:39:45.052Z,45
2017-04-04T10:40:54.699Z,50
2017-04-04T10:42:04.617Z,50
2017-04-04T10:43:14.544Z,55
2017-04-04T10:44:24.782Z,55
2017-04-04T10:45:34.692Z,55
2017-04-04T10:46:44.603Z,60
2017-04-04T10:47:54.205Z,60
2017-04-04T10:49:04.122Z,55
2017-04-04T10:50:14.052Z,55
2017-04-04T10:51:24.623Z,50
2017-04-04T10:52:34.520Z,45
2017-04-04T10:53:44.448Z,45
2017-04-04T10:54:54.360Z,40
2017-04-04T10:56:03.647Z,40
2017-04-04T10:57:13.704Z,40
2017-04-04T10:58:23.635Z,35
2017-04-04T10:59:33.556Z,40
2017-04-04T11:00:43.224Z,40
2017-04-04T11:01:53.146Z,40
2017-04-04T11:03:03.713Z,40
2017-04-04T11:04:13.630Z,40
2017-04-04T11:05:23.549Z,45
2017-04-04T11:06:33.488Z,45
2017-04-04T11:07:43.107Z,45
2017-04-04T11:08:53.349Z,45
2017-04-04T11:10:03.257Z,45
2017-04-04T11:11:13.483Z,50
2017-04-04T11:12:23.709Z,50
2017-04-04T11:13:33.322Z,55
2017-04-04T11:14:43.534Z,50
2017-04-04T11:15:53.805Z,50
2017-04-04T11:17:03.440Z,45
2017-04-04T11:18:13.368Z,50
2017-04-04T11:19:23.579Z,50
2017-04-04T11:20:34.238Z,55
2017-04-04T11:21:43.847Z,55
2017-04-04T11:22:53.765Z,55
2017-04-04T11:24:03.380Z,55
2017-04-04T11:25:13.633Z,55
2017-04-04T11:26:23.701Z,55
2017-04-04T11:27:34.310Z,55
2017-04-04T11:28:43.703Z,50
2017-04-04T11:29:53.946Z,50
2017-04-04T11:31:04.168Z,50
2017-04-04T11:32:14.161Z,55
2017-04-04T11:33:24.083Z,55
2017-04-04T11:34:33.984Z,55
2017-04-04T11:35:43.600Z,50
2017-04-04T11:36:53.517Z,50
2017-04-04T11:38:03.578Z,45
2017-04-04T11:39:13.494Z,45
2017-04-04T11:40:23.402Z,45
2017-04-04T11:41:33.637Z,40
2017-04-04T11:42:43.578Z,40
2017-04-04T11:43:53.177Z,40
2017-04-04T11:45:02.795Z,40
2017-04-04T11:46:12.715Z,45
2017-04-04T11:47:22.346Z,45
2017-04-04T11:48:32.584Z,45
2017-04-04T11:49:43.620Z,50
2017-04-04T11:51:57.099Z,55
2017-04-04T11:53:07.322Z,60
2017-04-04T11:54:17.539Z,60
2017-04-04T11:55:27.597Z,55
2017-04-04T11:56:37.820Z,55
2017-04-04T11:57:47.432Z,55
2017-04-04T11:58:57.646Z,55
2017-04-04T12:00:07.321Z,55
2017-04-04T12:01:17.373Z,55
2017-04-04T12:02:27.290Z,65
2017-04-04T12:03:36.898Z,60
2017-04-04T12:04:46.804Z,60
2017-04-04T12:05:57.043Z,65
2017-04-04T12:07:06.956Z,65
2017-04-04T12:08:17.186Z,60
2017-04-04T12:09:27.101Z,60
2017-04-04T12:10:37.022Z,60
2017-04-04T12:11:46.953Z,60
2017-04-04T12:12:56.718Z,60
2017-04-04T12:14:06.333Z,60
2017-04-04T12:15:16.621Z,60
2017-04-04T12:16:26.979Z,55
2017-04-04T12:17:36.689Z,55
2017-04-04T12:18:46.774Z,50
2017-04-04T12:19:56.378Z,45
2017-04-04T12:21:06.040Z,45
2017-04-04T12:22:16.257Z,45
2017-04-04T12:23:26.211Z,45
2017-04-04T12:24:36.563Z,45
2017-04-04T12:25:46.514Z,50
2017-04-04T12:26:56.642Z,50
2017-04-04T12:28:06.868Z,55
2017-04-04T12:29:16.218Z,50
2017-04-04T12:30:26.290Z,50
2017-04-04T12:31:35.943Z,50
2017-04-04T12:32:45.883Z,45
2017-04-04T12:33:55.479Z,45
2017-04-04T12:35:05.383Z,45
2017-04-04T12:36:15.147Z,40
2017-04-04T12:37:25.075Z,40
2017-04-04T12:38:35.056Z,35
2017-04-04T12:39:44.381Z,35
2017-04-04T12:40:53.711Z,35
2017-04-04T12:42:04.080Z,35
2017-04-04T12:43:14.321Z,35
2017-04-04T12:44:23.630Z,35
2017-04-04T12:45:33.547Z,35
2017-04-04T12:46:43.685Z,35
2017-04-04T12:47:53.463Z,40
2017-04-04T12:49:03.418Z,45
2017-04-04T12:50:13.654Z,50
2017-04-04T12:51:23.906Z,55
2017-04-04T12:52:33.842Z,55
2017-04-04T12:53:44.228Z,60
2017-04-04T12:54:53.855Z,60
2017-04-04T12:56:03.794Z,60
2017-04-04T12:57:13.750Z,60
2017-04-04T12:58:23.672Z,65
2017-04-04T12:59:33.739Z,60
2017-04-04T13:00:43.954Z,60
2017-04-04T13:01:54.312Z,55
2017-04-04T13:03:03.924Z,50
2017-04-04T13:04:13.572Z,50
2017-04-04T13:05:23.069Z,45
2017-04-04T13:06:33.021Z,40
2017-04-04T13:07:42.981Z,35
2017-04-04T13:08:52.950Z,30
2017-04-04T13:10:03.048Z,25
2017-04-04T13:11:13.132Z,25
2017-04-04T13:12:23.060Z,25
2017-04-04T13:13:32.994Z,25
2017-04-04T13:14:42.648Z,25
2017-04-04T13:15:52.928Z,25
2017-04-04T13:17:02.411Z,25
2017-04-04T13:18:12.341Z,25
2017-04-04T13:19:22.258Z,30
2017-04-04T13:20:32.522Z,30
2017-04-04T13:21:42.755Z,30
2017-04-04T13:22:52.496Z,35
2017-04-04T13:24:02.125Z,35
2017-04-04T13:25:12.052Z,35
2017-04-04T13:26:22.302Z,40
2017-04-04T13:27:32.235Z,40
2017-04-04T13:28:42.576Z,40
2017-04-04T13:29:52.231Z,45
2017-04-04T13:31:01.841Z,45
2017-04-04T13:32:11.788Z,45
2017-04-04T13:33:21.719Z,45
2017-04-04T13:34:31.746Z,40
2017-04-04T13:35:42.050Z,40
2017-04-04T13:36:51.673Z,35
2017-04-04T13:38:01.619Z,35
2017-04-04T13:39:11.878Z,30
2017-04-04T13:40:21.954Z,30
2017-04-04T13:41:31.869Z,30
2017-04-04T13:42:41.816Z,30
2017-04-04T13:43:51.752Z,30
2017-04-04T13:45:01.412Z,30
2017-04-04T13:46:10.822Z,30
2017-04-04T13:47:21.074Z,35
2017-04-04T13:48:31.006Z,35
2017-04-04T13:49:41.243Z,35
2017-04-04T13:50:50.904Z,35
2017-04-04T13:52:01.000Z,35
2017-04-04T13:53:11.270Z,40
2017-04-04T13:54:20.902Z,35
2017-04-04T13:55:30.553Z,30
2017-04-04T13:56:40.489Z,30
2017-04-04T13:57:50.894Z,25
2017-04-04T13:59:00.532Z,25
2017-04-04T14:00:09.859Z,20
2017-04-04T14:01:20.480Z,20
2017-04-04T14:02:30.403Z,20
2017-04-04T14:03:40.169Z,25
2017-04-04T14:04:50.435Z,25
2017-04-04T14:06:00.363Z,25
2017-04-04T14:07:10.290Z,25
2017-04-04T14:08:20.512Z,25
2017-04-04T14:09:30.888Z,25
2017-04-04T14:10:40.815Z,30
2017-04-04T14:11:50.736Z,30
2017-04-04T14:13:00.040Z,30
2017-04-04T14:14:09.951Z,35
2017-04-04T14:15:20.335Z,40
2017-04-04T14:16:30.283Z,40
2017-04-04T14:17:40.571Z,45
2017-04-04T14:18:50.532Z,45
2017-04-04T14:20:00.461Z,45
2017-04-04T14:21:10.214Z,45
2017-04-04T14:22:20.147Z,45
2017-04-04T14:23:30.075Z,45
2017-04-04T14:24:39.994Z,45
2017-04-04T14:25:50.234Z,45
2017-04-04T14:26:59.996Z,45
2017-04-04T14:28:09.621Z,45
2017-04-04T14:29:19.571Z,45
2017-04-04T14:30:29.502Z,45
2017-04-04T14:31:39.439Z,45
2017-04-04T14:32:49.201Z,45
2017-04-04T14:33:59.132Z,45
2017-04-04T14:35:08.750Z,40
2017-04-04T14:36:19.058Z,40
2017-04-04T14:37:29.361Z,40
2017-04-04T14:38:39.893Z,35
2017-04-04T14:39:49.691Z,35
2017-04-04T14:40:59.446Z,35
2017-04-04T14:42:09.692Z,35
2017-04-04T14:43:19.982Z,35
2017-04-04T14:44:30.062Z,35
2017-04-04T14:45:40.036Z,35
2017-04-04T14:46:50.303Z,35
2017-04-04T14:47:59.957Z,35
2017-04-04T14:49:09.587Z,35
2017-04-04T14:50:19.661Z,35
2017-04-04T14:51:29.566Z,35
2017-04-04T14:52:39.523Z,30
2017-04-04T14:53:49.437Z,30
2017-04-04T14:54:58.751Z,30
2017-04-04T14:56:08.837Z,25
2017-04-04T14:57:19.068Z,25
2017-04-04T14:58:29.078Z,25
2017-04-04T14:59:39.332Z,20
2017-04-04T15:00:49.420Z,25
2017-04-04T15:01:59.560Z,25
2017-04-04T15:03:09.473Z,25
2017-04-04T15:04:19.733Z,25
2017-04-04T15:05:29.737Z,30
2017-04-04T15:06:40.013Z,30
2017-04-04T15:07:50.414Z,30
2017-04-04T15:09:00.365Z,30
2017-04-04T15:10:09.693Z,30
2017-04-04T15:11:19.349Z,30
2017-04-04T15:12:29.621Z,30
2017-04-04T15:13:40.061Z,30
2017-04-04T15:14:50.377Z,30
2017-04-04T15:16:00.598Z,30
2017-04-04T15:17:10.214Z,30
2017-04-04T15:18:20.142Z,30
2017-04-04T15:19:30.151Z,35
2017-04-04T15:20:39.509Z,35
2017-04-04T15:21:49.763Z,35
2017-04-04T15:22:59.697Z,30
2017-04-04T15:24:10.242Z,30
2017-04-04T15:25:20.579Z,30
2017-04-04T15:26:30.227Z,25
2017-04-04T15:27:40.206Z,25
2017-04-04T15:28:49.965Z,25
2017-04-04T15:29:59.618Z,25
2017-04-04T15:31:09.704Z,25
2017-04-04T15:32:19.940Z,25
2017-04-04T15:33:29.643Z,25
2017-04-04T15:34:39.392Z,25
2017-04-04T15:35:49.327Z,25
2017-04-04T15:36:59.070Z,25
2017-04-04T15:38:09.281Z,25
2017-04-04T15:39:19.609Z,25
2017-04-04T15:40:29.547Z,20
2017-04-04T15:41:39.799Z,20
2017-04-04T15:42:49.821Z,20
2017-04-04T15:43:59.738Z,20
2017-04-04T15:45:09.360Z,20
2017-04-04T15:46:19.595Z,20
2017-04-04T15:47:29.835Z,20
2017-04-04T15:48:39.859Z,20
2017-04-04T15:49:50.098Z,25
2017-04-04T15:51:00.610Z,25
2017-04-04T15:52:09.638Z,25
2017-04-04T15:53:19.559Z,25
2017-04-04T15:54:29.988Z,25
2017-04-04T15:55:39.654Z,25
2017-04-04T15:56:49.963Z,30
2017-04-04T15:57:59.313Z,30
2017-04-04T15:59:08.972Z,30
2017-04-04T16:00:18.712Z,25
2017-04-04T16:01:28.625Z,25
2017-04-04T16:02:38.251Z,25
2017-04-04T16:03:48.457Z,25
2017-04-04T16:04:58.054Z,25
2017-04-04T16:06:08.734Z,20
2017-04-04T16:07:18.944Z,20
2017-04-04T16:08:28.847Z,20
2017-04-04T16:09:39.071Z,20
2017-04-04T16:10:49.003Z,20
2017-04-04T16:11:59.041Z,15
2017-04-04T16:13:08.640Z,15
2017-04-04T16:14:18.550Z,15
2017-04-04T16:15:28.190Z,15
2017-04-04T16:16:38.115Z,15
2017-04-04T16:17:48.128Z,15
2017-04-04T16:18:58.063Z,15
2017-04-04T16:20:08.272Z,15
2017-04-04T16:21:18.499Z,15
2017-04-04T16:22:28.727Z,15
2017-04-04T16:23:39.043Z,15
2017-04-04T16:24:49.261Z,15
2017-04-04T16:25:59.171Z,15
2017-04-04T16:27:09.076Z,15
2017-04-04T16:28:19.284Z,15
2017-04-04T16:29:29.901Z,15
2017-04-04T16:30:39.816Z,15
2017-04-04T16:31:49.778Z,15
2017-04-04T16:32:59.399Z,15
2017-04-04T16:34:09.328Z,15
2017-04-04T16:35:18.734Z,15
2017-04-04T16:36:28.961Z,15
2017-04-04T16:37:38.871Z,20
2017-04-04T16:38:49.096Z,20
2017-04-04T16:39:59.304Z,20
2017-04-04T16:41:09.651Z,20
2017-04-04T16:42:19.862Z,20
2017-04-04T16:43:29.464Z,20
2017-04-04T16:44:39.692Z,20
2017-04-04T16:45:49.910Z,20
2017-04-04T16:46:59.980Z,20
2017-04-04T16:48:10.238Z,20
2017-04-04T16:49:20.171Z,20
2017-04-04T16:50:30.440Z,15